createdAt,value
2022-11-06T00:01:40.069Z,19.40
2022-11-06T00:04:07.052Z,23.83
2022-11-06T00:06:49.384Z,18.98
2022-11-06T00:09:20.650Z,18.77
2022-11-06T00:11:49.502Z,20.90
2022-11-06T00:14:17.476Z,22.17
2022-11-06T00:16:46.073Z,18.35
2022-11-06T00:19:13.271Z,18.60
2022-11-06T00:21:40.651Z,20.63
2022-11-06T00:24:08.489Z,20.98
2022-11-06T00:26:35.930Z,23.20
2022-11-06T00:29:04.310Z,18.33
2022-11-06T00:31:33.862Z,24.08
2022-11-06T00:34:01.460Z,22.75
2022-11-06T00:36:32.481Z,23.63
2022-11-06T00:39:00.000Z,22.52
2022-11-06T00:41:28.040Z,21.35
2022-11-06T00:44:00.136Z,21.00
2022-11-06T00:46:27.840Z,20.33
2022-11-06T00:48:55.298Z,18.80
2022-11-06T00:51:25.441Z,19.80
2022-11-06T00:54:00.956Z,21.15
2022-11-06T00:56:28.695Z,19.98
2022-11-06T00:58:58.400Z,24.98
2022-11-06T01:01:28.127Z,18.23
2022-11-06T01:04:04.703Z,18.10
2022-11-06T01:06:35.655Z,22.70
2022-11-06T01:09:03.955Z,20.33
2022-11-06T01:12:06.880Z,19.90
2022-11-06T01:14:27.104Z,20.52
2022-11-06T01:16:54.285Z,19.15
2022-11-06T01:19:22.689Z,19.92
2022-11-06T01:21:52.910Z,18.27
2022-11-06T01:24:29.610Z,17.58
2022-11-06T01:27:25.956Z,20.27
2022-11-06T01:29:45.085Z,18.73
2022-11-06T01:32:12.682Z,17.20
2022-11-06T01:34:39.701Z,16.50
2022-11-06T01:37:10.399Z,15.10
2022-11-06T01:39:40.200Z,15.38
2022-11-06T01:42:07.110Z,15.30
2022-11-06T01:44:43.045Z,16.25
2022-11-06T01:47:27.476Z,16.42
2022-11-06T01:49:59.766Z,15.38
2022-11-06T01:52:28.250Z,13.93
2022-11-06T01:54:58.592Z,13.88
2022-11-06T01:57:25.747Z,14.52
2022-11-06T01:59:54.380Z,10.85
2022-11-06T02:02:21.746Z,14.13
2022-11-06T02:04:49.499Z,13.98
2022-11-06T02:07:18.837Z,13.68
2022-11-06T02:09:45.924Z,12.25
2022-11-06T02:12:21.548Z,13.18
2022-11-06T02:14:51.201Z,12.50
2022-11-06T02:17:48.832Z,11.60
2022-11-06T02:20:27.850Z,14.52
2022-11-06T02:23:22.656Z,12.32
2022-11-06T02:25:58.608Z,14.25
2022-11-06T02:28:32.708Z,13.60
2022-11-06T02:31:03.207Z,11.18
2022-11-06T02:33:34.955Z,13.10
2022-11-06T02:36:06.110Z,15.00
2022-11-06T02:38:44.297Z,13.38
2022-11-06T02:41:17.716Z,14.48
2022-11-06T02:43:48.891Z,13.15
2022-11-06T02:46:20.488Z,12.07
2022-11-06T02:48:51.584Z,12.15
2022-11-06T02:51:23.987Z,13.57
2022-11-06T02:53:52.046Z,12.27
2022-11-06T02:56:25.778Z,14.15
2022-11-06T02:58:58.424Z,14.70
2022-11-06T03:01:35.436Z,15.57
2022-11-06T03:04:22.886Z,12.50
2022-11-06T03:07:00.876Z,12.38
2022-11-06T03:09:31.626Z,13.82
2022-11-06T03:12:14.649Z,10.60
2022-11-06T03:14:53.177Z,15.45
2022-11-06T03:17:45.031Z,16.70
2022-11-06T03:20:35.232Z,14.95
2022-11-06T03:23:22.725Z,12.27
2022-11-06T03:26:07.707Z,9.35
2022-11-06T03:28:54.400Z,12.07
2022-11-06T03:31:31.390Z,13.90
2022-11-06T03:34:03.866Z,13.13
2022-11-06T03:36:47.828Z,13.00
2022-11-06T03:39:20.802Z,9.68
2022-11-06T03:42:06.367Z,13.85
2022-11-06T03:44:40.247Z,12.35
2022-11-06T03:47:20.884Z,12.82
2022-11-06T03:50:03.182Z,12.75
2022-11-06T03:52:49.081Z,15.80
2022-11-06T03:55:23.209Z,10.80
2022-11-06T03:57:53.412Z,10.88
2022-11-06T04:00:20.708Z,12.27
2022-11-06T04:03:04.899Z,11.65
2022-11-06T04:05:39.693Z,11.50
2022-11-06T04:08:26.419Z,11.40
2022-11-06T04:11:17.213Z,13.63
2022-11-06T04:14:04.423Z,12.57
2022-11-06T04:16:42.983Z,11.18
2022-11-06T04:19:16.204Z,13.30
2022-11-06T04:22:29.483Z,12.55
2022-11-06T04:25:34.070Z,13.23
2022-11-06T04:28:22.452Z,12.02
2022-11-06T04:31:12.067Z,10.75
2022-11-06T04:33:58.313Z,12.65
2022-11-06T04:38:57.282Z,11.52
2022-11-06T04:41:38.733Z,13.02
2022-11-06T04:44:30.120Z,13.75
2022-11-06T04:47:06.356Z,11.18
2022-11-06T04:49:36.898Z,12.27
2022-11-06T04:52:07.425Z,12.70
2022-11-06T04:54:35.468Z,13.80
2022-11-06T04:57:03.459Z,12.00
2022-11-06T04:59:34.025Z,11.82
2022-11-06T05:02:01.452Z,10.48
2022-11-06T05:04:28.765Z,12.73
2022-11-06T05:06:55.763Z,10.60
2022-11-06T05:09:23.312Z,12.38
2022-11-06T05:11:50.217Z,11.65
2022-11-06T05:14:17.163Z,10.38
2022-11-06T05:16:44.037Z,8.68
2022-11-06T05:19:11.076Z,8.57
2022-11-06T05:21:56.783Z,10.40
2022-11-06T05:24:23.834Z,10.35
2022-11-06T05:26:56.132Z,8.57
2022-11-06T05:29:26.200Z,7.63
2022-11-06T05:31:53.249Z,7.80
2022-11-06T05:34:20.208Z,8.63
2022-11-06T05:36:47.233Z,9.70
2022-11-06T05:39:14.267Z,9.60
2022-11-06T05:41:41.224Z,7.53
2022-11-06T05:44:08.531Z,8.10
2022-11-06T05:46:48.116Z,9.20
2022-11-06T05:49:17.427Z,8.40
2022-11-06T05:51:44.488Z,12.40
2022-11-06T05:54:12.312Z,8.27
2022-11-06T05:56:39.283Z,8.02
2022-11-06T05:59:06.215Z,10.20
2022-11-06T06:01:33.281Z,9.57
2022-11-06T06:04:00.531Z,12.48
2022-11-06T06:06:27.570Z,11.73
2022-11-06T06:08:54.503Z,11.18
2022-11-06T06:11:21.591Z,14.13
2022-11-06T06:13:48.567Z,10.73
2022-11-06T06:16:16.054Z,11.18
2022-11-06T06:18:43.057Z,10.23
2022-11-06T06:21:10.119Z,11.98
2022-11-06T06:23:37.061Z,9.27
2022-11-06T06:26:05.654Z,8.57
2022-11-06T06:28:32.928Z,10.50
2022-11-06T06:31:05.142Z,9.93
2022-11-06T06:33:32.429Z,11.98
2022-11-06T06:36:02.512Z,9.05
2022-11-06T06:38:29.534Z,16.40
2022-11-06T06:41:02.089Z,10.35
2022-11-06T06:43:29.165Z,12.85
2022-11-06T06:46:00.168Z,9.73
2022-11-06T06:48:27.615Z,10.70
2022-11-06T06:50:59.369Z,9.57
2022-11-06T06:53:27.365Z,10.20
2022-11-06T06:55:54.419Z,7.00
2022-11-06T06:58:21.680Z,9.20
2022-11-06T07:00:48.743Z,11.32
2022-11-06T07:03:15.671Z,11.50
2022-11-06T07:05:42.798Z,8.15
2022-11-06T07:08:10.121Z,8.15
2022-11-06T07:10:37.183Z,8.38
2022-11-06T07:13:05.229Z,8.38
2022-11-06T07:15:32.906Z,11.23
2022-11-06T07:18:04.217Z,6.43
2022-11-06T07:20:32.150Z,8.15
2022-11-06T07:22:59.165Z,9.20
2022-11-06T07:25:26.273Z,7.55
2022-11-06T07:27:53.196Z,8.25
2022-11-06T07:30:20.182Z,8.57
2022-11-06T07:32:47.168Z,9.13
2022-11-06T07:35:14.097Z,7.75
2022-11-06T07:37:41.056Z,8.57
2022-11-06T07:40:09.020Z,9.45
2022-11-06T07:42:39.526Z,8.82
2022-11-06T07:45:14.367Z,10.50
2022-11-06T07:47:41.326Z,8.35
2022-11-06T07:50:08.917Z,9.52
2022-11-06T07:52:35.847Z,10.13
2022-11-06T07:55:02.863Z,9.05
2022-11-06T07:57:30.077Z,8.43
2022-11-06T07:59:57.028Z,11.73
2022-11-06T08:02:23.967Z,11.05
2022-11-06T08:04:50.954Z,8.75
2022-11-06T08:07:17.983Z,14.05
2022-11-06T08:09:44.899Z,11.85
2022-11-06T08:12:14.475Z,13.35
2022-11-06T08:14:41.755Z,9.05
2022-11-06T08:17:08.730Z,11.25
2022-11-06T08:19:35.770Z,6.55
2022-11-06T08:22:03.409Z,9.18
2022-11-06T08:24:30.384Z,8.40
2022-11-06T08:26:58.905Z,8.25
2022-11-06T08:29:25.894Z,9.75
2022-11-06T08:31:52.817Z,9.48
2022-11-06T08:34:19.836Z,8.07
2022-11-06T08:36:49.686Z,6.90
2022-11-06T08:39:16.899Z,8.63
2022-11-06T08:41:45.078Z,9.60
2022-11-06T08:44:12.124Z,11.38
2022-11-06T08:46:39.129Z,9.95
2022-11-06T08:49:06.033Z,7.18
2022-11-06T08:51:32.950Z,7.47
2022-11-06T08:54:00.031Z,8.57
2022-11-06T08:56:27.098Z,8.70
2022-11-06T08:58:55.779Z,7.05
2022-11-06T09:01:24.195Z,6.78
2022-11-06T09:03:51.417Z,9.13
2022-11-06T09:06:18.597Z,8.00
2022-11-06T09:08:45.573Z,8.73
2022-11-06T09:11:13.051Z,6.45
2022-11-06T09:13:40.068Z,7.05
2022-11-06T09:16:12.784Z,5.97
2022-11-06T09:18:42.658Z,5.20
2022-11-06T09:21:09.709Z,6.85
2022-11-06T09:23:37.056Z,4.50
2022-11-06T09:26:04.238Z,6.40
2022-11-06T09:28:31.262Z,6.40
2022-11-06T09:30:58.197Z,6.20
2022-11-06T09:33:25.179Z,5.90
2022-11-06T09:35:52.800Z,6.70
2022-11-06T09:38:19.854Z,10.13
2022-11-06T09:40:54.218Z,5.90
2022-11-06T09:44:05.956Z,7.35
2022-11-06T09:46:41.049Z,7.57
2022-11-06T09:49:44.212Z,6.60
2022-11-06T09:52:26.222Z,5.72
2022-11-06T09:55:02.216Z,5.40
2022-11-06T09:57:32.332Z,7.00
2022-11-06T10:00:01.605Z,5.80
2022-11-06T10:02:42.067Z,5.25
2022-11-06T10:05:28.398Z,5.40
2022-11-06T10:10:51.693Z,4.50
2022-11-06T10:13:47.654Z,6.30
2022-11-06T10:16:32.747Z,7.43
2022-11-06T10:19:12.095Z,5.68
2022-11-06T10:21:53.744Z,7.10
2022-11-06T10:24:22.083Z,5.93
2022-11-06T10:26:57.024Z,9.20
2022-11-06T10:29:51.773Z,7.00
2022-11-06T10:32:38.565Z,7.63
2022-11-06T10:35:33.476Z,6.45
2022-11-06T10:38:37.853Z,9.82
2022-11-06T10:41:05.112Z,6.85
2022-11-06T10:43:34.660Z,11.65
2022-11-06T10:46:10.702Z,8.93
2022-11-06T10:48:46.743Z,11.32
2022-11-06T10:51:41.806Z,9.63
2022-11-06T10:54:46.328Z,11.07
2022-11-06T10:57:49.105Z,12.27
2022-11-06T11:00:16.808Z,11.45
2022-11-06T11:02:50.871Z,12.10
2022-11-06T11:05:20.872Z,11.82
2022-11-06T11:07:49.148Z,11.38
2022-11-06T11:10:28.424Z,10.35
2022-11-06T11:12:57.741Z,13.23
2022-11-06T11:15:27.804Z,10.60
2022-11-06T11:18:13.085Z,12.63
2022-11-06T11:20:46.426Z,13.00
2022-11-06T11:23:25.185Z,9.43
2022-11-06T11:25:54.626Z,10.98
2022-11-06T11:28:33.718Z,9.68
2022-11-06T11:31:07.940Z,9.68
2022-11-06T11:33:35.620Z,11.13
2022-11-06T11:36:05.540Z,8.30
2022-11-06T11:38:38.960Z,12.50
2022-11-06T11:41:32.436Z,11.05
2022-11-06T11:44:07.107Z,8.77
2022-11-06T11:46:34.135Z,11.50
2022-11-06T11:49:02.287Z,9.63
2022-11-06T11:51:36.676Z,12.02
2022-11-06T11:54:12.733Z,11.77
2022-11-06T11:57:05.118Z,11.93
2022-11-06T11:59:46.324Z,12.40
2022-11-06T12:02:31.089Z,13.35
2022-11-06T12:05:12.096Z,10.57
2022-11-06T12:07:47.917Z,9.65
2022-11-06T12:10:28.745Z,14.15
2022-11-06T12:12:57.563Z,11.60
2022-11-06T12:15:38.101Z,13.85
2022-11-06T12:18:10.360Z,10.95
2022-11-06T12:20:47.988Z,15.13
2022-11-06T12:23:27.613Z,14.40
2022-11-06T12:26:07.694Z,12.10
2022-11-06T12:28:37.884Z,13.93
2022-11-06T12:31:17.528Z,14.27
2022-11-06T12:34:05.644Z,13.25
2022-11-06T12:36:39.405Z,12.10
2022-11-06T12:39:16.562Z,14.63
2022-11-06T12:41:48.069Z,11.15
2022-11-06T12:44:16.779Z,15.05
2022-11-06T12:46:59.983Z,14.07
2022-11-06T12:49:43.697Z,11.25
2022-11-06T12:52:27.604Z,14.63
2022-11-06T12:55:23.774Z,13.40
2022-11-06T12:58:15.675Z,13.48
2022-11-06T13:00:51.720Z,15.35
2022-11-06T13:03:50.343Z,15.65
2022-11-06T13:06:38.880Z,18.20
2022-11-06T13:09:16.577Z,13.95
2022-11-06T13:11:46.575Z,13.23
2022-11-06T13:14:29.749Z,14.73
2022-11-06T13:17:16.163Z,14.13
2022-11-06T13:19:45.910Z,14.48
2022-11-06T13:22:21.321Z,17.30
2022-11-06T13:25:07.158Z,13.00
2022-11-06T13:27:39.499Z,12.52
2022-11-06T13:30:13.902Z,15.95
2022-11-06T13:32:43.963Z,11.40
2022-11-06T13:35:16.685Z,15.77
2022-11-06T13:37:48.839Z,17.33
2022-11-06T13:40:22.325Z,14.65
2022-11-06T13:43:19.758Z,16.73
2022-11-06T13:46:05.141Z,13.93
2022-11-06T13:48:51.166Z,15.75
2022-11-06T13:51:45.318Z,11.98
2022-11-06T13:54:27.387Z,14.05
2022-11-06T13:56:54.422Z,13.43
2022-11-06T13:59:45.123Z,14.82
2022-11-06T14:02:44.213Z,11.90
2022-11-06T14:05:29.412Z,14.90
2022-11-06T14:07:58.877Z,13.60
2022-11-06T14:10:37.103Z,14.52
2022-11-06T14:13:06.034Z,11.45
2022-11-06T14:15:39.681Z,14.45
2022-11-06T14:18:06.882Z,12.52
2022-11-06T14:20:36.595Z,16.67
2022-11-06T14:23:42.404Z,13.77
2022-11-06T14:26:12.504Z,11.90
2022-11-06T14:28:41.730Z,14.27
2022-11-06T14:31:13.400Z,13.57
2022-11-06T14:33:44.769Z,15.50
2022-11-06T14:36:32.487Z,16.10
2022-11-06T14:38:59.596Z,15.48
2022-11-06T14:41:35.654Z,12.43
2022-11-06T14:44:24.938Z,14.68
2022-11-06T14:46:55.881Z,14.07
2022-11-06T14:49:31.603Z,11.57
2022-11-06T14:52:08.276Z,13.73
2022-11-06T14:54:40.537Z,13.18
2022-11-06T14:57:12.800Z,16.17
2022-11-06T14:59:41.709Z,16.73
2022-11-06T15:02:20.350Z,13.23
2022-11-06T15:05:01.593Z,16.08
2022-11-06T15:10:43.297Z,12.60
2022-11-06T15:13:11.626Z,14.90
2022-11-06T15:15:51.062Z,19.75
2022-11-06T15:18:22.726Z,15.35
2022-11-06T15:20:58.614Z,17.20
2022-11-06T15:23:31.309Z,16.63
2022-11-06T15:26:02.461Z,16.40
2022-11-06T15:28:39.773Z,15.98
2022-11-06T15:31:12.886Z,15.20
2022-11-06T15:33:57.852Z,12.88
2022-11-06T15:36:26.004Z,15.82
2022-11-06T15:38:52.974Z,15.68
2022-11-06T15:41:27.249Z,17.85
2022-11-06T15:43:55.978Z,13.77
2022-11-06T15:46:28.286Z,13.43
2022-11-06T15:49:18.864Z,14.93
2022-11-06T15:51:51.835Z,15.93
2022-11-06T15:54:35.974Z,17.17
2022-11-06T15:57:11.207Z,16.42
2022-11-06T15:59:38.527Z,15.40
2022-11-06T16:02:20.614Z,16.33
2022-11-06T16:04:49.151Z,17.95
2022-11-06T16:07:18.245Z,22.33
2022-11-06T16:09:46.553Z,14.55
2022-11-06T16:12:16.968Z,19.40
2022-11-06T16:14:45.414Z,12.93
2022-11-06T16:17:23.566Z,16.65
2022-11-06T16:19:52.556Z,18.52
2022-11-06T16:22:29.238Z,14.02
2022-11-06T16:25:00.219Z,15.82
2022-11-06T16:27:27.792Z,14.30
2022-11-06T16:30:03.002Z,15.65
2022-11-06T16:32:37.824Z,17.85
2022-11-06T16:35:32.379Z,18.00
2022-11-06T16:38:40.391Z,14.55
2022-11-06T16:41:08.659Z,16.02
2022-11-06T16:43:35.840Z,15.70
2022-11-06T16:46:08.422Z,17.63
2022-11-06T16:48:39.849Z,13.18
2022-11-06T16:51:12.395Z,17.88
2022-11-06T16:53:57.254Z,16.02
2022-11-06T16:56:30.189Z,15.27
2022-11-06T16:59:08.741Z,15.43
2022-11-06T17:01:44.957Z,11.82
2022-11-06T17:04:24.577Z,13.95
2022-11-06T17:06:53.152Z,15.90
2022-11-06T17:09:22.914Z,17.65
2022-11-06T17:11:54.494Z,15.07
2022-11-06T17:14:22.746Z,16.67
2022-11-06T17:16:53.536Z,16.65
2022-11-06T17:19:21.334Z,14.18
2022-11-06T17:21:50.102Z,12.60
2022-11-06T17:24:36.165Z,15.98
2022-11-06T17:27:04.635Z,12.25
2022-11-06T17:29:33.517Z,13.10
2022-11-06T17:32:00.550Z,18.55
2022-11-06T17:34:27.580Z,12.95
2022-11-06T17:36:54.619Z,15.48
2022-11-06T17:39:22.518Z,15.88
2022-11-06T17:41:49.491Z,13.60
2022-11-06T17:44:17.364Z,13.77
2022-11-06T17:46:46.464Z,17.00
2022-11-06T17:49:18.168Z,18.17
2022-11-06T17:52:14.989Z,14.82
2022-11-06T17:54:41.957Z,13.38
2022-11-06T17:57:08.988Z,15.85
2022-11-06T17:59:35.942Z,18.10
2022-11-06T18:02:03.151Z,17.25
2022-11-06T18:04:30.827Z,17.52
2022-11-06T18:06:58.172Z,17.35
2022-11-06T18:09:25.591Z,15.27
2022-11-06T18:11:54.297Z,18.92
2022-11-06T18:14:23.062Z,24.05
2022-11-06T18:16:50.476Z,17.95
2022-11-06T18:19:21.636Z,16.75
2022-11-06T18:21:48.921Z,16.85
2022-11-06T18:24:16.110Z,17.60
2022-11-06T18:26:43.245Z,21.55
2022-11-06T18:29:12.080Z,20.75
2022-11-06T18:31:39.379Z,19.23
2022-11-06T18:34:06.873Z,18.27
2022-11-06T18:36:36.476Z,29.42
2022-11-06T18:39:07.172Z,32.25
2022-11-06T18:41:34.714Z,28.48
2022-11-06T18:44:01.886Z,25.00
2022-11-06T18:46:29.687Z,26.95
2022-11-06T18:48:56.659Z,20.15
2022-11-06T18:51:34.636Z,17.98
2022-11-06T18:54:05.236Z,18.52
2022-11-06T18:56:33.642Z,18.27
2022-11-06T18:59:01.013Z,20.83
2022-11-06T19:01:29.552Z,19.40
2022-11-06T19:03:56.765Z,22.42
2022-11-06T19:06:24.023Z,19.77
2022-11-06T19:08:50.981Z,21.52
2022-11-06T19:11:20.176Z,18.42
2022-11-06T19:13:48.630Z,18.33
2022-11-06T19:16:19.244Z,21.08
2022-11-06T19:21:30.500Z,18.20
2022-11-06T19:24:04.582Z,20.33
2022-11-06T19:26:34.683Z,20.60
2022-11-06T19:29:02.264Z,21.70
2022-11-06T19:31:30.344Z,21.60
2022-11-06T19:33:58.886Z,18.70
2022-11-06T19:36:26.328Z,20.95
2022-11-06T19:38:53.870Z,25.17
2022-11-06T19:41:21.160Z,24.60
2022-11-06T19:43:48.287Z,19.42
2022-11-06T19:46:23.420Z,20.40
2022-11-06T19:48:52.847Z,19.52
2022-11-06T19:51:19.794Z,19.50
2022-11-06T19:53:46.751Z,17.95
2022-11-06T19:56:16.607Z,23.13
2022-11-06T19:58:43.953Z,20.85
2022-11-06T20:01:15.656Z,22.00
2022-11-06T20:03:42.959Z,22.70
2022-11-06T20:06:11.079Z,21.30
2022-11-06T20:08:39.947Z,23.15
2022-11-06T20:11:09.617Z,22.85
2022-11-06T20:13:36.728Z,22.80
2022-11-06T20:16:05.908Z,21.05
2022-11-06T20:18:35.640Z,27.48
2022-11-06T20:21:05.637Z,26.75
2022-11-06T20:23:33.549Z,22.98
2022-11-06T20:26:00.885Z,26.73
2022-11-06T20:28:28.144Z,25.38
2022-11-06T20:30:56.035Z,25.10
2022-11-06T20:33:23.793Z,26.52
2022-11-06T20:35:50.917Z,32.50
2022-11-06T20:38:17.923Z,28.42
2022-11-06T20:40:46.137Z,29.02
2022-11-06T20:43:13.654Z,26.10
2022-11-06T20:45:41.564Z,30.77
2022-11-06T20:48:09.378Z,33.10
2022-11-06T20:50:36.864Z,29.92
2022-11-06T20:53:04.612Z,34.25
2022-11-06T20:55:32.169Z,32.53
2022-11-06T20:57:59.785Z,30.45
2022-11-06T21:00:27.879Z,29.45
2022-11-06T21:03:01.300Z,28.35
2022-11-06T21:05:29.148Z,31.63
2022-11-06T21:07:56.265Z,31.45
2022-11-06T21:10:23.280Z,28.92
2022-11-06T21:12:50.284Z,29.08
2022-11-06T21:15:17.348Z,32.10
2022-11-06T21:17:44.399Z,29.23
2022-11-06T21:20:11.348Z,29.60
2022-11-06T21:22:38.313Z,28.27
2022-11-06T21:25:05.578Z,27.33
2022-11-06T21:27:32.475Z,22.88
2022-11-06T21:29:59.478Z,25.90
2022-11-06T21:32:27.034Z,25.70
2022-11-06T21:34:53.973Z,28.35
2022-11-06T21:37:32.677Z,26.60
2022-11-06T21:40:00.575Z,25.33
2022-11-06T21:42:27.737Z,28.42
2022-11-06T21:44:54.706Z,32.28
2022-11-06T21:47:21.675Z,28.98
2022-11-06T21:49:54.009Z,24.40
2022-11-06T21:52:40.281Z,27.17
2022-11-06T21:55:26.891Z,26.67
2022-11-06T21:57:54.294Z,25.35
2022-11-06T22:00:21.935Z,24.50
2022-11-06T22:02:51.024Z,24.25
2022-11-06T22:05:18.500Z,19.55
2022-11-06T22:07:45.673Z,24.85
2022-11-06T22:10:13.218Z,22.48
2022-11-06T22:12:40.617Z,23.83
2022-11-06T22:15:08.244Z,23.40
2022-11-06T22:17:35.305Z,23.35
2022-11-06T22:20:02.295Z,22.23
2022-11-06T22:22:29.364Z,23.35
2022-11-06T22:24:56.505Z,23.58
2022-11-06T22:27:23.438Z,21.25
2022-11-06T22:29:50.405Z,19.45
2022-11-06T22:32:17.313Z,23.23
2022-11-06T22:34:44.259Z,21.15
2022-11-06T22:37:11.277Z,21.92
2022-11-06T22:39:38.362Z,25.75
2022-11-06T22:42:05.362Z,23.65
2022-11-06T22:44:33.694Z,22.15
2022-11-06T22:47:01.445Z,21.20
2022-11-06T22:49:28.574Z,22.77
2022-11-06T22:51:55.485Z,20.98
2022-11-06T22:54:22.596Z,21.30
2022-11-06T22:56:49.505Z,24.13
2022-11-06T22:59:16.547Z,18.27
2022-11-06T23:01:43.800Z,26.20
2022-11-06T23:04:15.188Z,23.90
2022-11-06T23:06:44.233Z,18.88
2022-11-06T23:09:12.442Z,22.35
2022-11-06T23:11:39.393Z,22.05
2022-11-06T23:14:09.178Z,23.17
2022-11-06T23:16:55.740Z,25.55
2022-11-06T23:21:50.775Z,19.73
2022-11-06T23:24:18.041Z,18.52
2022-11-06T23:26:45.355Z,21.40
2022-11-06T23:29:12.821Z,22.88
2022-11-06T23:31:41.203Z,18.80
2022-11-06T23:34:08.326Z,21.35
2022-11-06T23:36:35.547Z,20.45
2022-11-06T23:39:02.518Z,21.23
2022-11-06T23:41:45.941Z,19.38
2022-11-06T23:44:33.637Z,21.90
2022-11-06T23:47:01.189Z,21.92
2022-11-06T23:49:28.236Z,23.17
2022-11-06T23:51:55.455Z,22.40
2022-11-06T23:54:22.621Z,21.30
2022-11-06T23:56:49.890Z,19.02
2022-11-06T23:59:16.997Z,20.67
